createdAt,value
2022-09-12T00:01:10.783Z,2.60
2022-09-12T00:03:39.814Z,2.42
2022-09-12T00:06:12.918Z,2.90
2022-09-12T00:08:40.905Z,2.60
2022-09-12T00:11:12.899Z,3.47
2022-09-12T00:13:42.292Z,3.08
2022-09-12T00:16:17.954Z,3.00
2022-09-12T00:18:47.523Z,3.10
2022-09-12T00:21:16.391Z,3.28
2022-09-12T00:23:44.430Z,2.72
2022-09-12T00:26:14.490Z,2.70
2022-09-12T00:28:42.964Z,3.03
2022-09-12T00:31:13.416Z,2.80
2022-09-12T00:33:42.023Z,3.15
2022-09-12T00:36:16.906Z,2.92
2022-09-12T00:38:45.393Z,2.70
2022-09-12T00:41:19.054Z,2.92
2022-09-12T00:43:49.935Z,3.30
2022-09-12T00:46:28.465Z,2.50
2022-09-12T00:49:02.802Z,2.80
2022-09-12T00:51:34.171Z,2.40
2022-09-12T00:54:07.464Z,2.80
2022-09-12T00:56:38.602Z,2.70
2022-09-12T00:59:13.247Z,3.10
2022-09-12T01:01:43.638Z,2.58
2022-09-12T01:04:13.947Z,2.70
2022-09-12T01:06:45.063Z,2.90
2022-09-12T01:09:16.932Z,2.97
2022-09-12T01:11:48.641Z,2.88
2022-09-12T01:14:18.451Z,2.70
2022-09-12T01:16:48.064Z,2.95
2022-09-12T01:19:38.148Z,2.72
2022-09-12T01:22:24.895Z,2.35
2022-09-12T01:25:08.157Z,2.50
2022-09-12T01:27:51.840Z,2.67
2022-09-12T01:30:29.923Z,2.53
2022-09-12T01:33:23.102Z,2.65
2022-09-12T01:36:01.403Z,2.42
2022-09-12T01:38:36.373Z,2.47
2022-09-12T01:41:12.681Z,2.17
2022-09-12T01:43:49.245Z,2.50
2022-09-12T01:46:22.749Z,2.28
2022-09-12T01:48:57.547Z,2.33
2022-09-12T01:51:29.831Z,2.45
2022-09-12T01:54:04.074Z,2.13
2022-09-12T01:56:36.770Z,2.30
2022-09-12T01:59:10.085Z,2.53
2022-09-12T02:01:45.674Z,2.58
2022-09-12T02:04:18.733Z,2.08
2022-09-12T02:06:51.288Z,2.08
2022-09-12T02:09:23.819Z,2.53
2022-09-12T02:11:55.066Z,2.13
2022-09-12T02:14:26.755Z,2.00
2022-09-12T02:16:59.021Z,2.55
2022-09-12T02:19:31.088Z,2.50
2022-09-12T02:22:01.437Z,2.42
2022-09-12T02:24:32.836Z,2.55
2022-09-12T02:27:05.246Z,2.38
2022-09-12T02:29:33.396Z,2.10
2022-09-12T02:32:07.003Z,2.10
2022-09-12T02:34:46.317Z,2.10
2022-09-12T02:37:23.615Z,1.70
2022-09-12T02:39:52.005Z,2.10
2022-09-12T02:42:19.996Z,2.10
2022-09-12T02:44:48.172Z,1.83
2022-09-12T02:47:22.209Z,2.00
2022-09-12T02:49:50.728Z,1.98
2022-09-12T02:52:19.319Z,2.10
2022-09-12T02:54:47.807Z,1.80
2022-09-12T02:57:22.857Z,1.83
2022-09-12T02:59:52.950Z,2.00
2022-09-12T03:02:33.520Z,2.00
2022-09-12T03:05:16.021Z,1.92
2022-09-12T03:08:03.159Z,2.20
2022-09-12T03:10:39.177Z,1.80
2022-09-12T03:13:15.661Z,1.95
2022-09-12T03:15:51.903Z,2.08
2022-09-12T03:18:33.220Z,2.00
2022-09-12T03:21:07.340Z,2.00
2022-09-12T03:23:43.927Z,2.03
2022-09-12T03:26:17.142Z,2.28
2022-09-12T03:28:48.563Z,2.40
2022-09-12T03:31:18.967Z,2.60
2022-09-12T03:33:48.422Z,2.03
2022-09-12T03:36:18.139Z,2.08
2022-09-12T03:38:46.153Z,2.20
2022-09-12T03:41:14.305Z,2.13
2022-09-12T03:43:42.553Z,2.13
2022-09-12T03:46:10.613Z,2.30
2022-09-12T03:48:38.779Z,2.10
2022-09-12T03:51:10.565Z,2.15
2022-09-12T03:53:38.935Z,2.00
2022-09-12T03:56:08.561Z,2.50
2022-09-12T03:58:37.331Z,2.20
2022-09-12T04:01:12.356Z,2.30
2022-09-12T04:03:41.262Z,2.30
2022-09-12T04:06:12.299Z,2.25
2022-09-12T04:08:40.706Z,2.35
2022-09-12T04:11:11.130Z,2.60
2022-09-12T04:13:42.227Z,2.22
2022-09-12T04:16:11.173Z,2.05
2022-09-12T04:18:39.496Z,2.15
2022-09-12T04:21:09.358Z,2.20
2022-09-12T04:23:39.356Z,2.00
2022-09-12T04:26:07.915Z,2.22
2022-09-12T04:28:38.276Z,3.15
2022-09-12T04:31:08.013Z,2.83
2022-09-12T04:33:36.329Z,2.10
2022-09-12T04:36:06.363Z,2.55
2022-09-12T04:38:34.828Z,2.53
2022-09-12T04:41:12.002Z,2.95
2022-09-12T04:43:40.096Z,2.58
2022-09-12T04:46:08.775Z,2.40
2022-09-12T04:48:36.892Z,2.15
2022-09-12T04:51:09.487Z,2.60
2022-09-12T04:53:39.158Z,2.58
2022-09-12T04:56:10.407Z,3.00
2022-09-12T04:58:39.406Z,2.75
2022-09-12T05:01:08.553Z,2.60
2022-09-12T05:03:38.961Z,2.28
2022-09-12T05:06:08.919Z,2.13
2022-09-12T05:08:37.203Z,2.25
2022-09-12T05:11:07.603Z,1.95
2022-09-12T05:13:37.046Z,2.53
2022-09-12T05:16:07.217Z,2.38
2022-09-12T05:18:37.133Z,2.20
2022-09-12T05:21:08.086Z,2.28
2022-09-12T05:23:36.738Z,2.47
2022-09-12T05:26:06.803Z,1.85
2022-09-12T05:28:38.600Z,3.05
2022-09-12T05:31:08.682Z,2.72
2022-09-12T05:33:38.072Z,2.20
2022-09-12T05:36:07.965Z,2.70
2022-09-12T05:38:36.119Z,2.75
2022-09-12T05:41:06.233Z,2.63
2022-09-12T05:43:34.591Z,2.45
2022-09-12T05:46:10.857Z,2.28
2022-09-12T05:48:39.485Z,2.00
2022-09-12T05:51:10.375Z,2.30
2022-09-12T05:53:39.663Z,2.17
2022-09-12T05:56:10.599Z,2.38
2022-09-12T05:58:40.264Z,2.40
2022-09-12T06:01:12.447Z,2.70
2022-09-12T06:03:42.892Z,2.40
2022-09-12T06:06:13.577Z,2.55
2022-09-12T06:08:42.893Z,2.38
2022-09-12T06:11:12.792Z,2.70
2022-09-12T06:13:42.222Z,2.22
2022-09-12T06:16:13.694Z,2.70
2022-09-12T06:18:42.512Z,2.33
2022-09-12T06:21:12.807Z,2.55
2022-09-12T06:23:41.789Z,2.08
2022-09-12T06:26:12.155Z,2.72
2022-09-12T06:28:42.973Z,2.20
2022-09-12T06:31:15.091Z,2.50
2022-09-12T06:33:45.717Z,2.55
2022-09-12T06:36:16.042Z,2.80
2022-09-12T06:38:46.261Z,2.53
2022-09-12T06:41:14.709Z,2.40
2022-09-12T06:43:43.703Z,2.63
2022-09-12T06:46:13.561Z,3.10
2022-09-12T06:48:42.217Z,2.58
2022-09-12T06:51:13.473Z,2.80
2022-09-12T06:53:41.721Z,2.78
2022-09-12T06:56:12.514Z,3.00
2022-09-12T06:58:41.093Z,2.72
2022-09-12T07:01:11.007Z,2.30
2022-09-12T07:03:41.180Z,2.72
2022-09-12T07:06:11.690Z,3.15
2022-09-12T07:08:41.060Z,3.20
2022-09-12T07:11:14.443Z,2.03
2022-09-12T07:13:43.726Z,2.58
2022-09-12T07:16:17.296Z,2.30
2022-09-12T07:18:52.171Z,3.17
2022-09-12T07:21:20.631Z,2.72
2022-09-12T07:23:49.230Z,2.50
2022-09-12T07:26:18.112Z,2.95
2022-09-12T07:28:46.499Z,2.80
2022-09-12T07:31:16.377Z,2.90
2022-09-12T07:33:45.123Z,2.55
2022-09-12T07:36:16.505Z,2.28
2022-09-12T07:38:45.135Z,2.53
2022-09-12T07:41:14.442Z,3.10
2022-09-12T07:43:42.953Z,2.70
2022-09-12T07:46:11.515Z,2.60
2022-09-12T07:48:40.838Z,2.40
2022-09-12T07:51:11.110Z,2.55
2022-09-12T07:53:43.445Z,3.03
2022-09-12T07:56:12.553Z,2.72
2022-09-12T07:58:42.532Z,2.70
2022-09-12T08:01:13.155Z,2.80
2022-09-12T08:03:42.179Z,2.40
2022-09-12T08:06:11.894Z,2.42
2022-09-12T08:08:42.076Z,2.70
2022-09-12T08:11:12.257Z,2.30
2022-09-12T08:13:41.611Z,2.45
2022-09-12T08:16:13.102Z,1.90
2022-09-12T08:18:41.519Z,1.92
2022-09-12T08:21:13.940Z,2.20
2022-09-12T08:23:44.026Z,1.80
2022-09-12T08:26:13.141Z,2.20
2022-09-12T08:28:41.801Z,2.00
2022-09-12T08:31:12.301Z,2.28
2022-09-12T08:33:40.350Z,2.20
2022-09-12T08:36:12.180Z,2.25
2022-09-12T08:38:42.089Z,2.42
2022-09-12T08:41:21.622Z,2.10
2022-09-12T08:44:13.969Z,2.33
2022-09-12T08:46:51.658Z,1.73
2022-09-12T08:49:27.233Z,2.20
2022-09-12T08:51:56.982Z,2.05
2022-09-12T08:54:27.473Z,2.30
2022-09-12T08:57:02.841Z,2.20
2022-09-12T08:59:36.762Z,1.85
2022-09-12T09:02:20.825Z,1.95
2022-09-12T09:04:52.875Z,1.75
2022-09-12T09:07:34.703Z,2.10
2022-09-12T09:10:14.025Z,2.55
2022-09-12T09:12:51.151Z,2.45
2022-09-12T09:15:42.662Z,2.40
2022-09-12T09:18:18.853Z,1.90
2022-09-12T09:20:50.808Z,2.05
2022-09-12T09:23:24.912Z,2.35
2022-09-12T09:25:58.330Z,2.45
2022-09-12T09:28:35.892Z,2.33
2022-09-12T09:31:04.510Z,2.10
2022-09-12T09:33:35.986Z,1.75
2022-09-12T09:36:14.868Z,2.60
2022-09-12T09:38:49.618Z,2.70
2022-09-12T09:41:44.838Z,2.15
2022-09-12T09:44:14.387Z,1.98
2022-09-12T09:46:42.382Z,2.47
2022-09-12T09:49:13.882Z,2.08
2022-09-12T09:51:43.475Z,2.30
2022-09-12T09:54:20.294Z,2.22
2022-09-12T09:56:48.947Z,1.60
2022-09-12T09:59:21.168Z,1.98
2022-09-12T10:01:54.877Z,2.00
2022-09-12T10:04:25.075Z,2.03
2022-09-12T10:06:55.427Z,1.48
2022-09-12T10:09:27.143Z,1.98
2022-09-12T10:11:56.459Z,1.75
2022-09-12T10:14:38.674Z,1.50
2022-09-12T10:17:33.917Z,1.83
2022-09-12T10:20:21.459Z,2.08
2022-09-12T10:22:50.691Z,2.28
2022-09-12T10:25:23.010Z,2.10
2022-09-12T10:27:56.284Z,2.03
2022-09-12T10:30:28.521Z,2.30
2022-09-12T10:33:01.427Z,2.20
2022-09-12T10:35:33.528Z,2.22
2022-09-12T10:38:06.154Z,2.45
2022-09-12T10:40:39.118Z,2.42
2022-09-12T10:43:18.984Z,1.92
2022-09-12T10:45:48.401Z,2.30
2022-09-12T10:48:28.871Z,1.50
2022-09-12T10:50:57.887Z,1.85
2022-09-12T10:53:31.112Z,2.30
2022-09-12T10:56:08.967Z,1.90
2022-09-12T10:58:57.950Z,2.15
2022-09-12T11:01:40.356Z,2.05
2022-09-12T11:04:27.875Z,1.98
2022-09-12T11:07:11.597Z,2.50
2022-09-12T11:09:46.423Z,2.72
2022-09-12T11:12:22.154Z,2.67
2022-09-12T11:15:04.198Z,3.00
2022-09-12T11:17:48.411Z,2.50
2022-09-12T11:20:44.902Z,2.15
2022-09-12T11:23:43.439Z,2.30
2022-09-12T11:26:24.621Z,2.13
2022-09-12T11:29:02.136Z,2.15
2022-09-12T11:31:51.924Z,2.40
2022-09-12T11:34:30.733Z,2.50
2022-09-12T11:37:16.164Z,2.22
2022-09-12T11:39:50.433Z,2.35
2022-09-12T11:42:27.700Z,2.10
2022-09-12T11:45:04.190Z,1.90
2022-09-12T11:47:36.181Z,2.28
2022-09-12T11:50:21.505Z,2.50
2022-09-12T11:52:49.795Z,2.83
2022-09-12T11:55:20.691Z,2.42
2022-09-12T11:57:54.013Z,2.47
2022-09-12T12:00:24.234Z,3.20
2022-09-12T12:03:02.412Z,2.67
2022-09-12T12:05:38.530Z,2.47
2022-09-12T12:08:08.017Z,2.40
2022-09-12T12:10:39.560Z,1.83
2022-09-12T12:13:14.188Z,2.00
2022-09-12T12:15:48.353Z,2.15
2022-09-12T12:18:19.876Z,1.63
2022-09-12T12:20:50.581Z,2.40
2022-09-12T12:23:27.296Z,2.15
2022-09-12T12:25:56.974Z,2.00
2022-09-12T12:29:01.174Z,1.85
2022-09-12T12:31:29.174Z,1.52
2022-09-12T12:34:20.517Z,1.75
2022-09-12T12:36:50.300Z,1.65
2022-09-12T12:40:03.106Z,1.63
2022-09-12T12:43:05.367Z,1.58
2022-09-12T12:46:12.611Z,1.70
2022-09-12T12:48:53.219Z,2.00
2022-09-12T12:51:41.372Z,1.70
2022-09-12T12:54:49.545Z,1.88
2022-09-12T12:57:34.142Z,2.20
2022-09-12T13:00:04.904Z,1.90
2022-09-12T13:02:35.685Z,1.63
2022-09-12T13:05:08.065Z,2.20
2022-09-12T13:07:38.818Z,2.10
2022-09-12T13:10:09.459Z,1.90
2022-09-12T13:12:45.093Z,1.92
2022-09-12T13:15:49.057Z,2.38
2022-09-12T13:18:24.261Z,2.40
2022-09-12T13:20:57.913Z,2.40
2022-09-12T13:23:27.696Z,2.40
2022-09-12T13:25:58.731Z,2.70
2022-09-12T13:28:28.223Z,2.35
2022-09-12T13:31:03.109Z,2.20
2022-09-12T13:33:39.038Z,2.22
2022-09-12T13:36:43.523Z,2.10
2022-09-12T13:39:17.706Z,2.30
2022-09-12T13:42:25.819Z,1.88
2022-09-12T13:44:59.598Z,2.20
2022-09-12T13:47:39.382Z,2.25
2022-09-12T13:50:13.866Z,2.22
2022-09-12T13:52:41.897Z,2.17
2022-09-12T13:55:24.965Z,2.20
2022-09-12T13:58:00.217Z,2.50
2022-09-12T14:00:30.353Z,2.40
2022-09-12T14:03:12.146Z,2.67
2022-09-12T14:05:43.748Z,2.70
2022-09-12T14:08:14.448Z,2.55
2022-09-12T14:10:45.316Z,2.60
2022-09-12T14:13:20.248Z,2.42
2022-09-12T14:15:50.294Z,2.40
2022-09-12T14:18:26.555Z,2.70
2022-09-12T14:20:57.019Z,2.30
2022-09-12T14:23:30.290Z,2.60
2022-09-12T14:26:01.234Z,2.55
2022-09-12T14:28:32.214Z,2.60
2022-09-12T14:31:03.077Z,2.60
2022-09-12T14:33:34.748Z,2.28
2022-09-12T14:36:19.502Z,2.65
2022-09-12T14:38:50.670Z,2.67
2022-09-12T14:41:24.979Z,2.70
2022-09-12T14:43:58.555Z,2.80
2022-09-12T14:46:31.753Z,2.58
2022-09-12T14:49:03.424Z,2.60
2022-09-12T14:51:35.575Z,2.58
2022-09-12T14:54:09.763Z,3.05
2022-09-12T14:56:43.443Z,2.75
2022-09-12T14:59:37.961Z,2.20
2022-09-12T15:02:27.428Z,3.20
2022-09-12T15:05:15.592Z,2.80
2022-09-12T15:07:46.538Z,2.80
2022-09-12T15:10:22.135Z,3.22
2022-09-12T15:12:50.481Z,2.80
2022-09-12T15:15:22.295Z,2.80
2022-09-12T15:17:50.672Z,2.47
2022-09-12T15:20:18.741Z,2.65
2022-09-12T15:22:46.813Z,2.53
2022-09-12T15:25:14.759Z,2.67
2022-09-12T15:27:42.895Z,2.78
2022-09-12T15:30:13.312Z,2.80
2022-09-12T15:32:45.510Z,2.70
2022-09-12T15:35:18.050Z,2.70
2022-09-12T15:37:46.392Z,3.05
2022-09-12T15:40:14.450Z,2.97
2022-09-12T15:42:42.916Z,3.20
2022-09-12T15:45:21.379Z,2.90
2022-09-12T15:47:50.776Z,3.30
2022-09-12T15:50:18.952Z,2.65
2022-09-12T15:52:46.933Z,2.88
2022-09-12T15:55:21.714Z,3.00
2022-09-12T15:57:49.889Z,3.33
2022-09-12T16:00:19.555Z,2.67
2022-09-12T16:02:48.708Z,2.90
2022-09-12T16:05:24.842Z,2.40
2022-09-12T16:07:54.919Z,2.80
2022-09-12T16:10:25.756Z,2.70
2022-09-12T16:12:54.020Z,2.70
2022-09-12T16:15:24.122Z,2.60
2022-09-12T16:17:53.089Z,2.90
2022-09-12T16:20:24.418Z,3.03
2022-09-12T16:22:52.502Z,2.70
2022-09-12T16:25:20.581Z,2.90
2022-09-12T16:27:49.000Z,3.03
2022-09-12T16:30:17.151Z,3.25
2022-09-12T16:32:45.084Z,2.65
2022-09-12T16:35:13.068Z,2.92
2022-09-12T16:37:42.642Z,3.10
2022-09-12T16:40:11.967Z,2.90
2022-09-12T16:42:43.674Z,2.67
2022-09-12T16:45:12.992Z,2.92
2022-09-12T16:47:41.033Z,3.38
2022-09-12T16:50:09.723Z,2.38
2022-09-12T16:52:37.812Z,2.55
2022-09-12T16:55:08.655Z,3.28
2022-09-12T16:57:36.624Z,2.83
2022-09-12T17:00:06.818Z,2.88
2022-09-12T17:02:34.937Z,2.85
2022-09-12T17:05:02.881Z,2.45
2022-09-12T17:07:30.934Z,2.90
2022-09-12T17:09:58.915Z,2.92
2022-09-12T17:12:29.605Z,2.70
2022-09-12T17:14:58.301Z,3.00
2022-09-12T17:17:26.785Z,2.92
2022-09-12T17:19:54.791Z,3.17
2022-09-12T17:22:22.949Z,2.80
2022-09-12T17:24:51.238Z,3.50
2022-09-12T17:27:19.284Z,2.88
2022-09-12T17:29:49.012Z,2.53
2022-09-12T17:32:17.621Z,2.90
2022-09-12T17:34:45.748Z,3.00
2022-09-12T17:37:14.314Z,2.95
2022-09-12T17:39:42.359Z,2.80
2022-09-12T17:42:10.345Z,3.58
2022-09-12T17:44:38.332Z,2.90
2022-09-12T17:47:07.781Z,2.92
2022-09-12T17:49:35.787Z,2.60
2022-09-12T17:52:04.134Z,2.92
2022-09-12T17:54:32.249Z,2.80
2022-09-12T17:57:00.202Z,2.92
2022-09-12T17:59:31.293Z,2.90
2022-09-12T18:02:13.873Z,2.50
2022-09-12T18:04:46.195Z,2.60
2022-09-12T18:07:14.368Z,2.40
2022-09-12T18:09:43.922Z,2.40
2022-09-12T18:12:12.411Z,3.00
2022-09-12T18:14:43.341Z,2.47
2022-09-12T18:17:11.732Z,2.60
2022-09-12T18:19:40.143Z,2.50
2022-09-12T18:22:10.258Z,2.90
2022-09-12T18:24:38.186Z,2.65
2022-09-12T18:27:06.391Z,2.50
2022-09-12T18:29:34.388Z,2.42
2022-09-12T18:32:02.749Z,2.50
2022-09-12T18:34:30.738Z,2.50
2022-09-12T18:36:59.133Z,2.30
2022-09-12T18:39:28.780Z,2.45
2022-09-12T18:41:57.184Z,2.10
2022-09-12T18:44:25.156Z,2.15
2022-09-12T18:46:53.416Z,2.38
2022-09-12T18:49:22.740Z,2.97
2022-09-12T18:51:53.554Z,2.08
2022-09-12T18:54:21.719Z,2.50
2022-09-12T18:56:51.747Z,2.35
2022-09-12T18:59:19.940Z,2.10
2022-09-12T19:01:48.215Z,2.50
2022-09-12T19:04:17.389Z,2.22
2022-09-12T19:06:46.845Z,2.40
2022-09-12T19:09:17.651Z,2.30
2022-09-12T19:11:49.748Z,2.50
2022-09-12T19:14:22.670Z,2.20
2022-09-12T19:16:52.165Z,2.63
2022-09-12T19:19:22.703Z,2.20
2022-09-12T19:21:50.963Z,2.30
2022-09-12T19:24:19.438Z,2.00
2022-09-12T19:26:47.642Z,2.70
2022-09-12T19:29:16.647Z,2.15
2022-09-12T19:31:46.844Z,2.45
2022-09-12T19:34:15.448Z,2.10
2022-09-12T19:36:46.265Z,2.13
2022-09-12T19:39:17.321Z,2.33
2022-09-12T19:41:45.550Z,2.50
2022-09-12T19:44:13.624Z,2.40
2022-09-12T19:46:42.741Z,2.20
2022-09-12T19:49:13.813Z,2.60
2022-09-12T19:51:42.539Z,2.20
2022-09-12T19:54:10.884Z,2.10
2022-09-12T19:56:38.818Z,2.50
2022-09-12T19:59:06.771Z,2.35
2022-09-12T20:01:37.076Z,1.90
2022-09-12T20:04:05.560Z,2.42
2022-09-12T20:06:35.304Z,2.22
2022-09-12T20:09:03.524Z,2.13
2022-09-12T20:11:31.572Z,2.30
2022-09-12T20:13:59.714Z,2.38
2022-09-12T20:16:29.801Z,2.25
2022-09-12T20:18:59.826Z,2.25
2022-09-12T20:21:31.846Z,1.92
2022-09-12T20:24:07.578Z,2.10
2022-09-12T20:26:35.777Z,2.10
2022-09-12T20:29:10.620Z,2.13
2022-09-12T20:31:40.579Z,2.28
2022-09-12T20:34:09.696Z,2.00
2022-09-12T20:36:37.673Z,2.05
2022-09-12T20:39:07.194Z,2.03
2022-09-12T20:41:36.498Z,1.90
2022-09-12T20:44:04.557Z,1.85
2022-09-12T20:46:35.163Z,2.25
2022-09-12T20:49:03.252Z,2.17
2022-09-12T20:51:31.298Z,2.28
2022-09-12T20:54:01.115Z,1.98
2022-09-12T20:56:31.909Z,2.33
2022-09-12T20:59:00.396Z,2.03
2022-09-12T21:01:30.306Z,2.20
2022-09-12T21:03:58.951Z,2.28
2022-09-12T21:06:27.004Z,2.22
2022-09-12T21:08:58.366Z,2.53
2022-09-12T21:11:26.375Z,2.20
2022-09-12T21:13:55.894Z,2.38
2022-09-12T21:16:27.297Z,2.40
2022-09-12T21:18:57.486Z,2.42
2022-09-12T21:21:26.256Z,2.42
2022-09-12T21:23:58.916Z,2.22
2022-09-12T21:26:27.076Z,1.80
2022-09-12T21:28:57.700Z,2.08
2022-09-12T21:31:26.937Z,2.17
2022-09-12T21:33:55.248Z,2.20
2022-09-12T21:36:23.236Z,2.10
2022-09-12T21:38:51.496Z,2.10
2022-09-12T21:41:19.535Z,2.40
2022-09-12T21:43:47.540Z,2.00
2022-09-12T21:46:16.962Z,2.03
2022-09-12T21:48:45.358Z,2.15
2022-09-12T21:51:15.939Z,2.10
2022-09-12T21:53:43.909Z,2.05
2022-09-12T21:56:11.930Z,1.90
2022-09-12T21:58:39.895Z,2.30
2022-09-12T22:01:09.572Z,2.10
2022-09-12T22:03:39.196Z,2.40
2022-09-12T22:06:07.833Z,2.17
2022-09-12T22:08:37.400Z,2.08
2022-09-12T22:11:09.576Z,2.22
2022-09-12T22:13:39.312Z,2.08
2022-09-12T22:16:07.928Z,2.13
2022-09-12T22:18:38.176Z,2.13
2022-09-12T22:21:08.273Z,2.30
2022-09-12T22:23:53.623Z,1.92
2022-09-12T22:26:21.712Z,1.90
2022-09-12T22:28:50.373Z,2.08
2022-09-12T22:31:18.982Z,2.35
2022-09-12T22:33:50.048Z,2.25
2022-09-12T22:36:18.263Z,1.73
2022-09-12T22:38:46.216Z,2.08
2022-09-12T22:41:14.291Z,1.98
2022-09-12T22:43:42.714Z,2.00
2022-09-12T22:46:13.338Z,2.38
2022-09-12T22:48:42.007Z,1.90
2022-09-12T22:51:12.068Z,2.28
2022-09-12T22:53:40.304Z,2.28
2022-09-12T22:56:09.300Z,2.08
2022-09-12T22:58:38.743Z,2.22
2022-09-12T23:01:07.591Z,2.10
2022-09-12T23:03:36.416Z,2.20
2022-09-12T23:06:05.063Z,1.95
2022-09-12T23:08:35.187Z,2.00
2022-09-12T23:11:05.325Z,2.13
2022-09-12T23:13:33.885Z,2.28
2022-09-12T23:16:03.543Z,2.17
2022-09-12T23:18:31.824Z,2.10
2022-09-12T23:21:01.230Z,2.15
2022-09-12T23:23:29.998Z,2.30
2022-09-12T23:26:07.681Z,2.55
2022-09-12T23:28:36.643Z,1.85
2022-09-12T23:31:04.750Z,2.15
2022-09-12T23:33:33.832Z,2.10
2022-09-12T23:36:02.928Z,2.45
2022-09-12T23:38:31.793Z,2.35
2022-09-12T23:40:59.973Z,2.50
2022-09-12T23:43:30.808Z,2.08
2022-09-12T23:45:59.269Z,2.47
2022-09-12T23:48:27.846Z,2.30
2022-09-12T23:50:56.164Z,2.10
2022-09-12T23:53:25.367Z,2.28
2022-09-12T23:55:53.994Z,2.15
2022-09-12T23:58:22.757Z,2.10
